Fontana, California
Current Conditions -  °F | °C
As of 1:53 PM on Monday 24 Nov 2014 (Local Time) from KONT Reporting Station
Scattered Clouds Scattered Clouds  
Wind Chill: 24°   Ceiling: Unl
Heat Index: 24°   Visibility: 10mi
Dew Point: -12°   Wind: 24mph
Humidity: 8%   Direction: 50°NE
Pressure: 30.18"   Gusts: 39mph
Location:  34.1°N, 117.43°W
Report Text: KONT 242153Z 05021G34KT 10SM SCT250 24/M12 A3018 RMK AO2 PK WND 04034/2151 SLP213 T02441117
Loading
Personal Weather Stations






























Interactive Weather Map New forecast layout! Learn more

10-Day Weather Forecast

Advertisements
Track Severe Weather on mobile